Aviation Digital Data Service (ADDS)

Output produced by METARs form (1855 UTC 26 March 2017)
found at http://aviationweather.gov/adds/metars/
 
KIAG 261747Z 2618/2718 12007KT P6SM BKN100 
     FM270300 17009KT 6SM -RA OVC035 
     FM270500 18010G18KT P6SM OVC025 
     FM271000 18006KT P6SM OVC012 
     FM271400 22010G17KT P6SM BKN012